KGEY/GEY METAR and TAF weather

Enter ICAO airport designator
Station Type Date Time Source
KGEY METAR 2022/06/26 07:53 UTC NOAA

KGEY 260753Z AUTO 00000KT 10SM OVC070 13/01 A3043 RMK AO2 SLP286 T01280006


Station Type Date Time Source
KGEY Decoded METAR 2022/06/26 07:53 UTC NOAA

SOUTH BIG HORN COUNTY AIRPORT , WY, United States (KGEY) 44-31N 108-05W 1191M
Jun 26, 2022 - 03:53 AM EDT / 2022.06.26 0753 UTC
Wind: Calm:0
Visibility: 10 mile(s):0
Sky conditions: overcast
Temperature: 55.0 F (12.8 C)
Dew Point: 33.1 F (0.6 C)
Relative Humidity: 43%
Pressure (altimeter): 30.43 in. Hg (1030 hPa)
ob: KGEY 260753Z AUTO 00000KT 10SM OVC070 13/01 A3043 RMK AO2 SLP286 T01280006
cycle: 8

Station Type Date Time Source
KGEY TAF UTC NOAA

Error!

Example: see airport list